Time;durP1;ratioP1;P1;durP2;ratioP2;P2;SDS_P1;SDS_P2;PMS_P1;PMS_P2;Temp;Humidity;BMP_temperature;BMP_pressure;BME280_temperature;BME280_humidity;BME280_pressure;Samples;Min_cycle;Max_cycle;Signal;HPM_P1;HPM_P2
2023/02/27 00:00:24;;;;;;;;;19.00;12.50;;;;;;;;5080202;27;51528;-54
2023/02/27 00:03:09;;;;;;;;;20.00;13.75;;;;;;;;5079548;27;51143;-49
2023/02/27 00:05:55;;;;;;;;;17.75;14.25;;;;;;;;5080214;27;51363;-49
2023/02/27 00:08:39;;;;;;;;;24.50;16.00;;;;;;;;5079872;27;51047;-51
2023/02/27 00:11:24;;;;;;;;;26.00;15.25;;;;;;;;5080296;27;51172;-49
2023/02/27 00:14:08;;;;;;;;;17.00;13.25;;;;;;;;5079737;27;51418;-48
2023/02/27 00:16:53;;;;;;;;;21.75;17.25;;;;;;;;5079967;27;51118;-49
2023/02/27 00:19:37;;;;;;;;;19.25;15.00;;;;;;;;5080002;27;51104;-51
2023/02/27 00:22:22;;;;;;;;;24.75;15.75;;;;;;;;5080050;27;51113;-48
2023/02/27 00:25:07;;;;;;;;;19.50;14.00;;;;;;;;5079572;27;51391;-50
2023/02/27 00:27:52;;;;;;;;;21.00;16.25;;;;;;;;5079755;28;51198;-52
2023/02/27 00:30:37;;;;;;;;;20.00;16.00;;;;;;;;5079884;28;51383;-49
2023/02/27 00:33:21;;;;;;;;;16.00;13.75;;;;;;;;5079444;28;51006;-52
2023/02/27 00:36:05;;;;;;;;;19.75;16.50;;;;;;;;5079905;28;51036;-50
2023/02/27 00:38:50;;;;;;;;;24.25;14.50;;;;;;;;5079573;28;51218;-52
2023/02/27 00:41:48;;;;;;;;;21.50;16.00;;;;;;;;5039645;28;51105;-52
2023/02/27 00:44:33;;;;;;;;;21.00;13.25;;;;;;;;5036951;28;51091;-48
2023/02/27 00:47:17;;;;;;;;;19.50;13.75;;;;;;;;5037106;28;51187;-51
2023/02/27 00:50:01;;;;;;;;;25.25;19.00;;;;;;;;5036866;28;51128;-49
2023/02/27 00:52:45;;;;;;;;;27.00;17.00;;;;;;;;5053459;28;51325;-51
2023/02/27 00:55:30;;;;;;;;;17.75;11.75;;;;;;;;5056881;28;51147;-50
2023/02/27 00:58:14;;;;;;;;;24.00;15.00;;;;;;;;5056429;28;51087;-50
2023/02/27 01:00:59;;;;;;;;;19.75;14.50;;;;;;;;5057294;28;51045;-49
2023/02/27 01:03:43;;;;;;;;;22.50;16.75;;;;;;;;5056637;28;51484;-48
2023/02/27 01:06:28;;;;;;;;;22.75;11.25;;;;;;;;5056743;28;51185;-49
2023/02/27 01:09:12;;;;;;;;;23.25;13.50;;;;;;;;5056661;28;51151;-51
2023/02/27 01:11:56;;;;;;;;;18.75;16.25;;;;;;;;5056974;28;51163;-52
2023/02/27 01:14:42;;;;;;;;;20.00;13.00;;;;;;;;5058000;28;51594;-47
2023/02/27 01:17:27;;;;;;;;;20.75;15.75;;;;;;;;5056344;27;51172;-51
2023/02/27 01:20:12;;;;;;;;;21.75;13.75;;;;;;;;5064324;27;51457;-48
2023/02/27 01:22:56;;;;;;;;;28.00;14.00;;;;;;;;5083090;27;51151;-50
2023/02/27 01:25:40;;;;;;;;;23.25;15.25;;;;;;;;5083273;27;51056;-51
2023/02/27 01:28:25;;;;;;;;;26.50;15.50;;;;;;;;5082559;27;51067;-47
2023/02/27 01:31:09;;;;;;;;;29.25;17.50;;;;;;;;5083106;27;53226;-51
2023/02/27 01:33:54;;;;;;;;;21.25;14.75;;;;;;;;5083010;27;51047;-51
2023/02/27 01:36:38;;;;;;;;;18.75;15.25;;;;;;;;5083023;27;50989;-50
2023/02/27 01:39:22;;;;;;;;;14.50;12.00;;;;;;;;5082490;27;51245;-49
2023/02/27 01:42:17;;;;;;;;;23.75;15.25;;;;;;;;5082786;27;51082;-46
2023/02/27 01:45:08;;;;;;;;;20.25;15.25;;;;;;;;5083084;27;51411;-48
2023/02/27 01:47:55;;;;;;;;;19.00;14.00;;;;;;;;5082754;27;51071;-50
2023/02/27 01:50:42;;;;;;;;;18.00;14.50;;;;;;;;5082914;27;51038;-48
2023/02/27 01:53:28;;;;;;;;;20.50;17.25;;;;;;;;5082184;27;51176;-47
2023/02/27 01:56:16;;;;;;;;;22.25;15.00;;;;;;;;5082375;27;51097;-49
2023/02/27 01:59:03;;;;;;;;;15.75;12.75;;;;;;;;5082367;27;51036;-51
2023/02/27 02:01:49;;;;;;;;;19.50;15.25;;;;;;;;5082611;27;51024;-49
2023/02/27 02:04:36;;;;;;;;;27.25;14.75;;;;;;;;5082050;27;51424;-49
2023/02/27 02:07:20;;;;;;;;;14.75;13.00;;;;;;;;5082261;27;51170;-50
2023/02/27 02:10:06;;;;;;;;;19.75;17.00;;;;;;;;5082233;27;51087;-50
2023/02/27 02:12:51;;;;;;;;;22.25;15.50;;;;;;;;5082032;27;51141;-51
2023/02/27 02:15:38;;;;;;;;;20.25;17.50;;;;;;;;5082309;27;51034;-48
2023/02/27 02:19:01;;;;;;;;;20.00;14.00;;;;;;;;5081861;27;51022;-50
2023/02/27 02:21:48;;;;;;;;;21.00;15.50;;;;;;;;4999172;28;51766;-49
2023/02/27 02:24:50;;;;;;;;;16.00;12.50;;;;;;;;4999211;28;51115;-51
2023/02/27 02:27:37;;;;;;;;;18.25;15.75;;;;;;;;5080873;27;51169;-48
2023/02/27 02:30:21;;;;;;;;;17.25;16.00;;;;;;;;5081878;27;51151;-46
2023/02/27 02:33:12;;;;;;;;;23.75;16.25;;;;;;;;5081791;27;51129;-50
2023/02/27 02:35:59;;;;;;;;;21.25;17.00;;;;;;;;5079515;27;52120;-51
2023/02/27 02:39:08;;;;;;;;;25.50;18.75;;;;;;;;5081491;27;51176;-49
2023/02/27 02:41:53;;;;;;;;;21.25;14.75;;;;;;;;5082040;27;51196;-49
2023/02/27 02:44:54;;;;;;;;;25.00;16.50;;;;;;;;5081231;27;51585;-48
2023/02/27 02:47:44;;;;;;;;;17.50;14.75;;;;;;;;5081217;27;51092;-48
2023/02/27 02:50:49;;;;;;;;;14.50;13.25;;;;;;;;5081136;27;51110;-50
2023/02/27 02:53:52;;;;;;;;;20.50;16.25;;;;;;;;5081640;27;51065;-49
2023/02/27 02:56:40;;;;;;;;;18.75;16.00;;;;;;;;5078535;27;51870;-49
2023/02/27 02:59:31;;;;;;;;;17.25;15.00;;;;;;;;5081285;27;51126;-48
2023/02/27 03:02:17;;;;;;;;;26.75;15.75;;;;;;;;5081032;27;51036;-46
2023/02/27 03:05:06;;;;;;;;;20.00;14.00;;;;;;;;5081259;27;51143;-49
2023/02/27 03:07:55;;;;;;;;;19.50;14.25;;;;;;;;5081302;27;51231;-51
2023/02/27 03:11:02;;;;;;;;;17.25;15.25;;;;;;;;5018670;28;51435;-50
2023/02/27 03:13:53;;;;;;;;;16.25;13.50;;;;;;;;5038034;28;51135;-52
2023/02/27 03:16:41;;;;;;;;;19.00;15.75;;;;;;;;5037811;28;51122;-50
2023/02/27 03:19:32;;;;;;;;;18.00;13.75;;;;;;;;5038329;28;51244;-52
2023/02/27 03:22:20;;;;;;;;;21.25;13.00;;;;;;;;5037874;28;51197;-48
2023/02/27 03:25:09;;;;;;;;;20.75;15.00;;;;;;;;5038131;28;51223;-49
2023/02/27 03:27:59;;;;;;;;;16.00;14.50;;;;;;;;5037983;28;51515;-50
2023/02/27 03:30:52;;;;;;;;;17.50;14.00;;;;;;;;5037653;28;51097;-49
2023/02/27 03:33:50;;;;;;;;;19.75;13.50;;;;;;;;4997882;28;51116;-48
2023/02/27 03:36:40;;;;;;;;;24.75;16.00;;;;;;;;4997566;28;51390;-53
2023/02/27 03:39:25;;;;;;;;;21.25;17.75;;;;;;;;4997918;28;51164;-51
2023/02/27 03:42:13;;;;;;;;;22.25;16.25;;;;;;;;4997527;28;51083;-52
2023/02/27 03:45:07;;;;;;;;;23.50;17.00;;;;;;;;4997894;28;51168;-50
2023/02/27 03:47:52;;;;;;;;;11.25;3.75;;;;;;;;4999029;28;51473;-50
2023/02/27 03:50:37;;;;;;;;;16.50;13.00;;;;;;;;5017510;28;51251;-49
2023/02/27 03:53:32;;;;;;;;;22.25;16.50;;;;;;;;5017415;28;51153;-48
2023/02/27 03:56:20;;;;;;;;;20.00;16.00;;;;;;;;5017199;28;51146;-52
2023/02/27 03:59:04;;;;;;;;;27.75;16.75;;;;;;;;5017330;28;51150;-49
2023/02/27 04:01:50;;;;;;;;;20.50;14.25;;;;;;;;5016939;28;51445;-53
2023/02/27 04:04:34;;;;;;;;;24.75;15.75;;;;;;;;5017154;28;51588;-51
2023/02/27 04:07:21;;;;;;;;;20.00;15.00;;;;;;;;5017061;28;51291;-47
2023/02/27 04:10:07;;;;;;;;;25.50;15.00;;;;;;;;5064451;27;51262;-48
2023/02/27 04:12:51;;;;;;;;;20.75;16.50;;;;;;;;5079514;27;51235;-49
2023/02/27 04:15:35;;;;;;;;;22.75;14.50;;;;;;;;5080036;27;51083;-50
2023/02/27 04:18:41;;;;;;;;;19.50;12.75;;;;;;;;5080061;27;51092;-49
2023/02/27 04:21:31;;;;;;;;;18.75;13.00;;;;;;;;5076359;27;51016;-49
2023/02/27 04:24:26;;;;;;;;;19.25;14.25;;;;;;;;5075884;27;51105;-48
2023/02/27 04:27:13;;;;;;;;;23.25;16.75;;;;;;;;5080019;28;51530;-49
2023/02/27 04:30:04;;;;;;;;;22.00;12.50;;;;;;;;5079848;28;51633;-50
2023/02/27 04:33:07;;;;;;;;;22.75;15.75;;;;;;;;5079553;28;51092;-47
2023/02/27 04:35:54;;;;;;;;;23.50;14.75;;;;;;;;5080051;28;51111;-51
2023/02/27 04:38:46;;;;;;;;;25.75;16.25;;;;;;;;5079624;28;50984;-49
2023/02/27 04:41:42;;;;;;;;;23.75;18.75;;;;;;;;5079817;28;51222;-48
2023/02/27 04:44:29;;;;;;;;;27.75;19.50;;;;;;;;5079781;28;51397;-50
2023/02/27 04:47:15;;;;;;;;;26.50;21.25;;;;;;;;5079658;28;52034;-50
2023/02/27 04:50:12;;;;;;;;;28.25;20.50;;;;;;;;5083327;27;51000;-51
2023/02/27 04:53:00;;;;;;;;;29.25;22.00;;;;;;;;5083371;27;51055;-50
2023/02/27 04:55:50;;;;;;;;;38.75;22.00;;;;;;;;5083761;27;51525;-49
2023/02/27 04:58:45;;;;;;;;;21.25;19.00;;;;;;;;5083482;27;51124;-51
2023/02/27 05:01:33;;;;;;;;;22.25;17.00;;;;;;;;5083810;27;51129;-51
2023/02/27 05:04:18;;;;;;;;;33.50;27.00;;;;;;;;5078033;27;51566;-53
2023/02/27 05:07:04;;;;;;;;;34.00;23.75;;;;;;;;5083309;27;51350;-52
2023/02/27 05:09:53;;;;;;;;;38.00;27.75;;;;;;;;5083446;27;51182;-46
2023/02/27 05:12:40;;;;;;;;;33.50;26.50;;;;;;;;5083444;27;51411;-49
2023/02/27 05:15:24;;;;;;;;;20.50;18.25;;;;;;;;5083741;27;51148;-53
2023/02/27 05:18:10;;;;;;;;;30.75;20.75;;;;;;;;5082861;27;51400;-50
2023/02/27 05:21:02;;;;;;;;;35.25;22.00;;;;;;;;5083121;27;51446;-52
2023/02/27 05:23:55;;;;;;;;;32.75;25.25;;;;;;;;5082981;27;51116;-50
2023/02/27 05:27:08;;;;;;;;;34.25;25.75;;;;;;;;5099650;27;51022;-52
2023/02/27 05:29:58;;;;;;;;;34.25;27.25;;;;;;;;5094481;27;51581;-50
2023/02/27 05:33:04;;;;;;;;;30.50;22.50;;;;;;;;5103572;27;51083;-49
2023/02/27 05:35:56;;;;;;;;;27.25;25.25;;;;;;;;5103480;27;51567;-50
2023/02/27 05:38:52;;;;;;;;;34.25;24.75;;;;;;;;5103014;27;50985;-52
2023/02/27 05:41:55;;;;;;;;;34.25;25.50;;;;;;;;5103703;27;51015;-49
2023/02/27 05:44:43;;;;;;;;;44.25;28.25;;;;;;;;5103211;27;51201;-47
2023/02/27 05:47:30;;;;;;;;;29.50;25.00;;;;;;;;5087774;27;50976;-54
2023/02/27 05:50:24;;;;;;;;;35.00;24.50;;;;;;;;5102976;27;51091;-50
2023/02/27 05:53:10;;;;;;;;;35.50;29.00;;;;;;;;5103240;27;50991;-51
2023/02/27 05:55:57;;;;;;;;;32.00;28.00;;;;;;;;5102847;27;51502;-51
2023/02/27 05:58:44;;;;;;;;;35.25;26.75;;;;;;;;5103183;27;51129;-50
2023/02/27 06:01:28;;;;;;;;;35.50;27.75;;;;;;;;5102040;27;51238;-51
2023/02/27 06:04:13;;;;;;;;;31.00;28.25;;;;;;;;5102591;27;51117;-54
2023/02/27 06:06:58;;;;;;;;;33.00;29.00;;;;;;;;5103133;27;51164;-51
2023/02/27 06:09:43;;;;;;;;;31.75;28.25;;;;;;;;5102672;27;51156;-57
2023/02/27 06:12:27;;;;;;;;;40.00;32.00;;;;;;;;5102680;27;51012;-51
2023/02/27 06:15:12;;;;;;;;;43.25;31.75;;;;;;;;5102331;27;51194;-53
2023/02/27 06:17:56;;;;;;;;;48.25;33.25;;;;;;;;5102965;27;51106;-54
2023/02/27 06:20:42;;;;;;;;;46.25;36.00;;;;;;;;5102396;27;51034;-52
2023/02/27 06:23:26;;;;;;;;;43.75;31.75;;;;;;;;5102415;27;51192;-54
2023/02/27 06:26:13;;;;;;;;;41.00;32.00;;;;;;;;5102041;27;51109;-55
2023/02/27 06:28:58;;;;;;;;;47.25;35.25;;;;;;;;5102045;27;51184;-53
2023/02/27 06:31:42;;;;;;;;;40.00;32.50;;;;;;;;5102782;27;51157;-51
2023/02/27 06:34:27;;;;;;;;;47.00;33.50;;;;;;;;5083017;27;51107;-53
2023/02/27 06:37:12;;;;;;;;;47.00;35.25;;;;;;;;5081533;27;51611;-52
2023/02/27 06:39:56;;;;;;;;;43.50;33.00;;;;;;;;5081414;27;51077;-56
2023/02/27 06:42:42;;;;;;;;;45.25;32.00;;;;;;;;5082072;27;51169;-52
2023/02/27 06:45:26;;;;;;;;;43.50;33.00;;;;;;;;5081238;27;51567;-53
2023/02/27 06:48:11;;;;;;;;;43.75;32.75;;;;;;;;5081665;27;51226;-48
2023/02/27 06:50:55;;;;;;;;;39.75;32.75;;;;;;;;5081759;27;51550;-52
2023/02/27 06:53:40;;;;;;;;;45.25;34.75;;;;;;;;5081384;27;51024;-49
2023/02/27 06:56:24;;;;;;;;;46.75;31.75;;;;;;;;5081763;27;51153;-51
2023/02/27 06:59:09;;;;;;;;;41.25;29.25;;;;;;;;5081239;27;51110;-49
2023/02/27 07:01:53;;;;;;;;;35.75;29.00;;;;;;;;5081331;27;51088;-54
2023/02/27 07:04:38;;;;;;;;;27.50;26.25;;;;;;;;5080950;27;51060;-50
2023/02/27 07:07:22;;;;;;;;;39.25;27.50;;;;;;;;5090565;27;51099;-49
2023/02/27 07:10:10;;;;;;;;;38.00;27.25;;;;;;;;5100316;27;51185;-49
2023/02/27 07:12:54;;;;;;;;;33.00;27.00;;;;;;;;5080182;27;51272;-57
2023/02/27 07:15:39;;;;;;;;;36.75;24.50;;;;;;;;5081044;27;51237;-53
2023/02/27 07:18:24;;;;;;;;;49.25;37.50;;;;;;;;5081205;27;51149;-55
2023/02/27 07:21:08;;;;;;;;;45.75;35.00;;;;;;;;5101336;27;51014;-50
2023/02/27 07:26:38;;;;;;;;;38.50;30.75;;;;;;;;5057727;28;51630;-49
2023/02/27 07:29:22;;;;;;;;;37.50;30.75;;;;;;;;5057928;28;51182;-53
2023/02/27 07:32:07;;;;;;;;;41.75;29.00;;;;;;;;5058176;28;51166;-51
2023/02/27 07:34:51;;;;;;;;;48.25;35.00;;;;;;;;5057839;28;51182;-54
2023/02/27 07:37:35;;;;;;;;;34.00;30.50;;;;;;;;5057497;28;51141;-51
2023/02/27 07:40:19;;;;;;;;;38.50;33.00;;;;;;;;5057858;28;51562;-54
2023/02/27 07:45:50;;;;;;;;;31.75;27.00;;;;;;;;4998129;28;51440;-53
2023/02/27 07:48:34;;;;;;;;;40.00;30.25;;;;;;;;4997727;28;51161;-55
2023/02/27 07:51:19;;;;;;;;;34.75;25.25;;;;;;;;4997725;28;51193;-49
2023/02/27 07:54:03;;;;;;;;;40.00;30.00;;;;;;;;4983568;28;51123;-51
2023/02/27 07:56:47;;;;;;;;;28.25;24.25;;;;;;;;4997808;28;51190;-50
2023/02/27 07:59:32;;;;;;;;;36.25;26.50;;;;;;;;4997269;28;51159;-50
2023/02/27 08:02:16;;;;;;;;;23.00;19.75;;;;;;;;4997419;28;51111;-53
2023/02/27 08:05:01;;;;;;;;;20.50;17.75;;;;;;;;5017175;28;51404;-57
2023/02/27 08:07:45;;;;;;;;;20.50;16.75;;;;;;;;5016927;28;51164;-54
2023/02/27 08:10:30;;;;;;;;;24.00;19.25;;;;;;;;5017104;28;51132;-50
2023/02/27 08:13:14;;;;;;;;;25.50;20.75;;;;;;;;5016998;28;51244;-51
2023/02/27 08:15:58;;;;;;;;;32.75;24.00;;;;;;;;5017388;28;51157;-51
2023/02/27 08:18:42;;;;;;;;;27.50;19.25;;;;;;;;5016908;28;51219;-55
2023/02/27 08:21:27;;;;;;;;;29.25;19.75;;;;;;;;4996097;28;51048;-55
2023/02/27 08:24:11;;;;;;;;;21.75;14.50;;;;;;;;5072639;27;51185;-51
2023/02/27 08:26:56;;;;;;;;;27.25;19.75;;;;;;;;5079768;27;51440;-55
2023/02/27 08:29:40;;;;;;;;;26.25;20.00;;;;;;;;5079994;27;51119;-51
2023/02/27 08:32:24;;;;;;;;;26.50;19.50;;;;;;;;5079969;28;50959;-50
2023/02/27 08:35:08;;;;;;;;;23.00;17.25;;;;;;;;5080059;28;50974;-55
2023/02/27 08:37:53;;;;;;;;;16.25;11.50;;;;;;;;5079918;28;51112;-56
2023/02/27 08:40:37;;;;;;;;;32.75;24.50;;;;;;;;5079860;28;51155;-54
2023/02/27 08:43:22;;;;;;;;;22.25;15.25;;;;;;;;5079518;28;51163;-50
2023/02/27 08:46:06;;;;;;;;;19.75;16.25;;;;;;;;5080009;28;51110;-53
2023/02/27 08:48:50;;;;;;;;;21.50;15.25;;;;;;;;5079422;28;51192;-52
2023/02/27 08:51:35;;;;;;;;;21.25;17.25;;;;;;;;5079536;28;51260;-52
2023/02/27 08:54:19;;;;;;;;;24.25;17.25;;;;;;;;5079642;28;51163;-48
2023/02/27 08:59:49;;;;;;;;;25.75;17.50;;;;;;;;5036565;28;51160;-54
2023/02/27 09:02:33;;;;;;;;;23.50;17.00;;;;;;;;5036695;28;51197;-52
2023/02/27 09:05:18;;;;;;;;;24.75;19.25;;;;;;;;5036862;28;51496;-49
2023/02/27 09:08:03;;;;;;;;;26.75;17.25;;;;;;;;5036478;28;51168;-55
2023/02/27 09:10:48;;;;;;;;;24.25;22.50;;;;;;;;5036755;28;51209;-56
2023/02/27 09:13:32;;;;;;;;;18.25;16.25;;;;;;;;5036225;28;51186;-55
2023/02/27 09:16:18;;;;;;;;;21.00;15.75;;;;;;;;5036484;28;51158;-52
2023/02/27 09:19:02;;;;;;;;;25.25;13.00;;;;;;;;5036511;28;51639;-51
2023/02/27 09:21:46;;;;;;;;;19.25;12.75;;;;;;;;5036274;28;51232;-54
2023/02/27 09:24:31;;;;;;;;;24.75;16.50;;;;;;;;5036722;28;51169;-54
2023/02/27 09:27:20;;;;;;;;;23.00;18.75;;;;;;;;5036157;28;51453;-53
2023/02/27 09:30:04;;;;;;;;;24.75;18.25;;;;;;;;5036351;28;51165;-55
2023/02/27 09:32:49;;;;;;;;;35.00;27.50;;;;;;;;5036431;28;51198;-52
2023/02/27 09:35:33;;;;;;;;;32.50;23.00;;;;;;;;5037711;28;51115;-52
2023/02/27 09:38:17;;;;;;;;;23.75;19.25;;;;;;;;5082642;27;51163;-53
2023/02/27 09:41:03;;;;;;;;;21.50;17.75;;;;;;;;5082656;27;51201;-52
2023/02/27 09:43:50;;;;;;;;;31.25;19.25;;;;;;;;5082956;27;51073;-57
2023/02/27 09:46:34;;;;;;;;;25.50;18.00;;;;;;;;5082660;27;51117;-52
2023/02/27 09:49:20;;;;;;;;;19.25;16.50;;;;;;;;5082795;27;51058;-51
2023/02/27 09:52:05;;;;;;;;;18.00;16.50;;;;;;;;5082507;27;51143;-50
2023/02/27 09:54:50;;;;;;;;;21.25;14.50;;;;;;;;5082773;27;51012;-53
2023/02/27 09:57:45;;;;;;;;;23.00;14.25;;;;;;;;5082378;27;51130;-54
2023/02/27 10:00:36;;;;;;;;;23.25;19.25;;;;;;;;5082682;27;51010;-53
2023/02/27 10:03:40;;;;;;;;;29.00;18.00;;;;;;;;5081871;27;51075;-51
2023/02/27 10:06:26;;;;;;;;;18.00;16.50;;;;;;;;5082393;27;51134;-50
2023/02/27 10:09:22;;;;;;;;;21.00;14.50;;;;;;;;5082251;27;51033;-51
2023/02/27 10:12:15;;;;;;;;;19.75;16.25;;;;;;;;5082232;27;51041;-53
2023/02/27 10:15:09;;;;;;;;;17.75;15.75;;;;;;;;5082318;27;51069;-57
2023/02/27 10:18:03;;;;;;;;;20.25;11.50;;;;;;;;5081839;27;51127;-53
2023/02/27 10:20:59;;;;;;;;;18.75;14.50;;;;;;;;5082205;27;51098;-50
2023/02/27 10:23:54;;;;;;;;;15.75;9.00;;;;;;;;5081920;27;51086;-50
2023/02/27 10:26:42;;;;;;;;;25.75;15.75;;;;;;;;5082118;27;51146;-55
2023/02/27 10:29:38;;;;;;;;;26.00;18.25;;;;;;;;5081795;27;51541;-49
2023/02/27 10:32:28;;;;;;;;;23.00;12.25;;;;;;;;5081881;27;51255;-55
2023/02/27 10:35:31;;;;;;;;;21.25;17.25;;;;;;;;5081812;27;51162;-55
2023/02/27 10:38:25;;;;;;;;;21.00;15.50;;;;;;;;5081791;27;51216;-50
2023/02/27 10:41:11;;;;;;;;;18.50;14.75;;;;;;;;5081445;27;51426;-52
2023/02/27 10:43:56;;;;;;;;;25.50;17.00;;;;;;;;5081665;27;51183;-55
2023/02/27 10:46:41;;;;;;;;;19.50;16.50;;;;;;;;5081388;27;51494;-53
2023/02/27 10:49:30;;;;;;;;;22.00;14.50;;;;;;;;5081220;27;51122;-53
2023/02/27 10:52:15;;;;;;;;;16.50;10.00;;;;;;;;5081655;27;51009;-50
2023/02/27 10:55:15;;;;;;;;;26.75;16.50;;;;;;;;5081226;27;51364;-53
2023/02/27 10:58:01;;;;;;;;;21.50;14.50;;;;;;;;5081473;27;51031;-52
2023/02/27 11:00:55;;;;;;;;;21.00;14.50;;;;;;;;5081314;27;51361;-58
2023/02/27 11:03:41;;;;;;;;;16.50;11.75;;;;;;;;5081259;27;51192;-51
2023/02/27 11:06:26;;;;;;;;;19.75;15.00;;;;;;;;5080984;27;51394;-56
2023/02/27 11:09:25;;;;;;;;;16.75;14.00;;;;;;;;5081170;27;51141;-49
2023/02/27 11:12:26;;;;;;;;;21.50;16.00;;;;;;;;5081024;27;51306;-52
2023/02/27 11:15:10;;;;;;;;;16.25;10.25;;;;;;;;5080747;27;51228;-53
2023/02/27 11:18:15;;;;;;;;;20.50;15.00;;;;;;;;5081438;27;51169;-53
2023/02/27 11:21:08;;;;;;;;;20.75;15.50;;;;;;;;5080553;27;51361;-52
2023/02/27 11:23:57;;;;;;;;;15.00;14.00;;;;;;;;5080985;27;51260;-53
2023/02/27 11:26:54;;;;;;;;;24.25;15.50;;;;;;;;5093038;27;50997;-51
2023/02/27 11:29:53;;;;;;;;;15.00;13.00;;;;;;;;5101290;27;51210;-52
2023/02/27 11:32:47;;;;;;;;;21.00;16.75;;;;;;;;5101066;27;51162;-52
2023/02/27 11:35:33;;;;;;;;;19.25;15.50;;;;;;;;5100894;27;51159;-52
2023/02/27 11:38:28;;;;;;;;;22.75;14.75;;;;;;;;5101407;27;51346;-51
2023/02/27 11:41:13;;;;;;;;;18.25;15.00;;;;;;;;5082776;27;51248;-52
2023/02/27 11:43:58;;;;;;;;;22.25;14.50;;;;;;;;5080836;27;51146;-49
2023/02/27 11:46:42;;;;;;;;;22.75;12.75;;;;;;;;5080233;27;51410;-52
2023/02/27 11:49:37;;;;;;;;;17.50;11.75;;;;;;;;5080406;27;51128;-50
2023/02/27 11:52:24;;;;;;;;;19.50;14.00;;;;;;;;5097087;27;51254;-54
2023/02/27 11:55:14;;;;;;;;;25.50;16.50;;;;;;;;5101046;27;51114;-52
2023/02/27 11:58:17;;;;;;;;;19.25;14.75;;;;;;;;5100007;27;51637;-47
2023/02/27 12:01:07;;;;;;;;;21.75;13.75;;;;;;;;5100688;27;51030;-56
2023/02/27 12:04:24;;;;;;;;;18.50;11.75;;;;;;;;5097270;27;51114;-56
2023/02/27 12:07:21;;;;;;;;;14.50;12.00;;;;;;;;5037039;27;51021;-48
2023/02/27 12:10:18;;;;;;;;;19.25;14.00;;;;;;;;5080485;27;51137;-49
2023/02/27 12:13:17;;;;;;;;;20.75;15.00;;;;;;;;5080178;27;51715;-50
2023/02/27 12:16:16;;;;;;;;;22.00;12.00;;;;;;;;5080165;27;51209;-52
2023/02/27 12:19:19;;;;;;;;;16.50;12.25;;;;;;;;5100517;27;51489;-49
2023/02/27 12:22:16;;;;;;;;;22.25;14.00;;;;;;;;5080461;27;51234;-52
2023/02/27 12:25:00;;;;;;;;;18.25;14.25;;;;;;;;5073371;27;51528;-54
2023/02/27 12:27:53;;;;;;;;;20.50;12.50;;;;;;;;5079528;27;51000;-55
2023/02/27 12:30:54;;;;;;;;;23.25;18.00;;;;;;;;5080133;28;51429;-50
2023/02/27 12:33:57;;;;;;;;;25.00;18.00;;;;;;;;5074529;28;51166;-48
2023/02/27 12:36:41;;;;;;;;;23.00;13.25;;;;;;;;5068709;28;51040;-51
2023/02/27 12:39:27;;;;;;;;;18.00;14.00;;;;;;;;5076930;28;51648;-46
2023/02/27 12:42:27;;;;;;;;;21.00;13.25;;;;;;;;5079821;28;51320;-52
2023/02/27 12:45:11;;;;;;;;;22.00;14.50;;;;;;;;5073249;28;51139;-45
2023/02/27 12:47:59;;;;;;;;;15.75;13.75;;;;;;;;5078858;28;51039;-48
2023/02/27 12:50:49;;;;;;;;;13.25;9.75;;;;;;;;5079362;28;51285;-54
2023/02/27 12:53:41;;;;;;;;;17.00;11.25;;;;;;;;5079657;28;51106;-48
2023/02/27 12:56:33;;;;;;;;;16.25;15.25;;;;;;;;5065667;28;51158;-50
2023/02/27 12:59:30;;;;;;;;;17.50;13.75;;;;;;;;5078284;28;51515;-53
2023/02/27 13:02:17;;;;;;;;;20.50;14.25;;;;;;;;5079929;28;51193;-52
2023/02/27 13:05:21;;;;;;;;;20.75;14.00;;;;;;;;5071030;28;51193;-52
2023/02/27 13:08:12;;;;;;;;;23.50;17.50;;;;;;;;5076546;28;51295;-49
2023/02/27 13:11:17;;;;;;;;;15.50;13.75;;;;;;;;5081086;27;51129;-49
2023/02/27 13:14:11;;;;;;;;;24.00;14.25;;;;;;;;5075000;27;51128;-50
2023/02/27 13:17:02;;;;;;;;;18.25;15.50;;;;;;;;5077374;27;51185;-48
2023/02/27 13:19:51;;;;;;;;;21.25;15.75;;;;;;;;5083132;27;51131;-53
2023/02/27 13:22:51;;;;;;;;;23.50;16.50;;;;;;;;5072971;27;51384;-54
2023/02/27 13:25:37;;;;;;;;;18.75;13.25;;;;;;;;5073183;27;51097;-50
2023/02/27 13:28:26;;;;;;;;;18.25;11.75;;;;;;;;5076481;27;51133;-55
2023/02/27 13:31:20;;;;;;;;;24.25;15.25;;;;;;;;5067323;27;51242;-51
2023/02/27 13:34:10;;;;;;;;;20.50;14.50;;;;;;;;5081075;27;51143;-48
2023/02/27 13:37:01;;;;;;;;;19.50;14.75;;;;;;;;5082907;27;51067;-55
2023/02/27 13:39:47;;;;;;;;;19.75;11.50;;;;;;;;5083473;27;51052;-53
2023/02/27 13:42:32;;;;;;;;;21.25;15.25;;;;;;;;5082446;27;51077;-49
2023/02/27 13:45:42;;;;;;;;;19.00;15.50;;;;;;;;5080751;27;51120;-50
2023/02/27 13:48:33;;;;;;;;;20.25;16.75;;;;;;;;5047158;27;51487;-48
2023/02/27 13:51:41;;;;;;;;;15.75;12.75;;;;;;;;5079369;27;51144;-56
2023/02/27 13:54:35;;;;;;;;;16.00;15.00;;;;;;;;5082908;27;51213;-53
2023/02/27 13:57:21;;;;;;;;;24.00;16.25;;;;;;;;5076600;27;51348;-53
2023/02/27 14:00:31;;;;;;;;;21.00;12.50;;;;;;;;5074957;27;51125;-52
2023/02/27 14:03:34;;;;;;;;;22.00;15.75;;;;;;;;5077075;27;51252;-48
2023/02/27 14:06:18;;;;;;;;;14.50;13.25;;;;;;;;5076758;27;51194;-53
2023/02/27 14:09:09;;;;;;;;;27.00;13.75;;;;;;;;5080455;27;51774;-47
2023/02/27 14:11:55;;;;;;;;;24.50;16.25;;;;;;;;5081495;27;51233;-48
2023/02/27 14:14:43;;;;;;;;;21.00;13.50;;;;;;;;5078500;27;51003;-49
2023/02/27 14:17:36;;;;;;;;;19.50;11.00;;;;;;;;5080186;27;51107;-54
2023/02/27 14:20:29;;;;;;;;;19.25;13.00;;;;;;;;5077455;27;51217;-51
2023/02/27 14:23:16;;;;;;;;;16.75;15.00;;;;;;;;5071983;27;51510;-53
2023/02/27 14:26:14;;;;;;;;;25.50;12.75;;;;;;;;5080519;27;51151;-49
2023/02/27 14:28:59;;;;;;;;;15.25;13.25;;;;;;;;5073392;27;51160;-51
2023/02/27 14:31:44;;;;;;;;;21.50;12.50;;;;;;;;5071476;27;51067;-50
2023/02/27 14:34:28;;;;;;;;;22.75;14.25;;;;;;;;5067541;27;51478;-53
2023/02/27 14:37:16;;;;;;;;;17.00;12.75;;;;;;;;5081304;27;51245;-51
2023/02/27 14:40:01;;;;;;;;;29.25;15.25;;;;;;;;5102260;27;51590;-51
2023/02/27 14:42:56;;;;;;;;;17.25;11.00;;;;;;;;5089957;27;51202;-55
2023/02/27 14:45:41;;;;;;;;;12.00;12.00;;;;;;;;5079550;27;51161;-52
2023/02/27 14:48:26;;;;;;;;;24.25;17.25;;;;;;;;5081770;27;51873;-50
2023/02/27 14:51:10;;;;;;;;;18.75;15.50;;;;;;;;5080933;27;51051;-52
2023/02/27 14:54:21;;;;;;;;;20.75;16.00;;;;;;;;5056684;27;51600;-51
2023/02/27 14:57:06;;;;;;;;;17.00;13.50;;;;;;;;5088375;27;51409;-52
2023/02/27 14:59:51;;;;;;;;;18.25;12.25;;;;;;;;5101658;27;51030;-49
2023/02/27 15:02:36;;;;;;;;;23.00;15.00;;;;;;;;5084905;27;51132;-53
2023/02/27 15:05:28;;;;;;;;;24.00;15.00;;;;;;;;5081369;27;51214;-52
2023/02/27 15:08:19;;;;;;;;;30.75;17.75;;;;;;;;5078954;27;51503;-49
2023/02/27 15:11:03;;;;;;;;;30.25;15.75;;;;;;;;5081288;27;51390;-52
2023/02/27 15:13:51;;;;;;;;;26.75;15.75;;;;;;;;5077928;27;51582;-53
2023/02/27 15:16:37;;;;;;;;;19.50;15.00;;;;;;;;5068996;27;51467;-52
2023/02/27 15:19:23;;;;;;;;;15.00;11.00;;;;;;;;5084759;27;51095;-51
2023/02/27 15:24:55;;;;;;;;;23.75;16.50;;;;;;;;5017602;28;52064;-53
2023/02/27 15:27:41;;;;;;;;;17.25;14.75;;;;;;;;5017422;28;51091;-51
2023/02/27 15:30:25;;;;;;;;;23.25;18.25;;;;;;;;5016749;28;51182;-48
2023/02/27 15:33:15;;;;;;;;;21.50;13.25;;;;;;;;5000281;28;51347;-52
2023/02/27 15:36:00;;;;;;;;;22.25;16.25;;;;;;;;5011663;28;51049;-50
2023/02/27 15:38:45;;;;;;;;;18.50;15.75;;;;;;;;4998452;28;51559;-52
2023/02/27 15:41:29;;;;;;;;;18.25;12.25;;;;;;;;5017349;28;51376;-46
2023/02/27 15:44:15;;;;;;;;;19.00;13.75;;;;;;;;5016327;28;51345;-50
2023/02/27 15:46:59;;;;;;;;;19.25;14.50;;;;;;;;5003803;28;51546;-49
2023/02/27 15:49:44;;;;;;;;;18.00;11.00;;;;;;;;4998543;28;51557;-50
2023/02/27 15:52:31;;;;;;;;;18.75;10.75;;;;;;;;5014305;28;51350;-54
2023/02/27 15:55:21;;;;;;;;;26.00;14.00;;;;;;;;5015816;28;51132;-52
2023/02/27 15:58:18;;;;;;;;;19.25;13.50;;;;;;;;5000436;28;51123;-51
2023/02/27 16:01:05;;;;;;;;;24.00;12.00;;;;;;;;5018021;27;51185;-54
2023/02/27 16:03:53;;;;;;;;;25.25;15.50;;;;;;;;5095292;27;51168;-50
2023/02/27 16:06:39;;;;;;;;;22.50;11.25;;;;;;;;5100412;27;51185;-50
2023/02/27 16:09:26;;;;;;;;;19.75;10.75;;;;;;;;5100277;27;51117;-48
2023/02/27 16:12:49;;;;;;;;;25.00;16.50;;;;;;;;5084789;27;51043;-53
2023/02/27 16:15:35;;;;;;;;;19.25;16.00;;;;;;;;5015547;28;51134;-51
2023/02/27 16:18:45;;;;;;;;;18.75;12.75;;;;;;;;5016994;28;51426;-50
2023/02/27 16:21:30;;;;;;;;;14.75;11.25;;;;;;;;5079982;27;51159;-54
2023/02/27 16:24:18;;;;;;;;;22.75;17.75;;;;;;;;5077184;27;51414;-50
2023/02/27 16:27:04;;;;;;;;;22.00;13.75;;;;;;;;5076562;27;51132;-56
2023/02/27 16:29:48;;;;;;;;;26.00;15.00;;;;;;;;5093400;27;51171;-54
2023/02/27 16:32:34;;;;;;;;;19.75;15.00;;;;;;;;5077256;27;51517;-49